Time;durP1;ratioP1;P1;durP2;ratioP2;P2;SDS_P1;SDS_P2;PMS_P1;PMS_P2;Temp;Humidity;BMP_temperature;BMP_pressure;BME280_temperature;BME280_humidity;BME280_pressure;Samples;Min_cycle;Max_cycle;Signal;HPM_P1;HPM_P2
2022/02/08 00:02:07;;;;;;;9.28;3.65;;;;;;;2.28;74.93;100294.11;1838968;77;27504;-62
2022/02/08 00:04:32;;;;;;;5.03;3.35;;;;;;;2.28;75.07;100303.40;1839117;77;25816;-62
2022/02/08 00:07:01;;;;;;;9.20;4.25;;;;;;;2.27;75.10;100303.02;1799729;79;25703;-63
2022/02/08 00:09:27;;;;;;;9.10;4.00;;;;;;;2.26;75.07;100305.29;1799531;79;26565;-62
2022/02/08 00:11:55;;;;;;;6.67;3.92;;;;;;;2.24;75.34;100323.09;1799802;78;25445;-62
2022/02/08 00:14:22;;;;;;;8.28;4.22;;;;;;;2.27;75.05;100326.06;1799467;79;27827;-62
2022/02/08 00:16:49;;;;;;;4.10;3.58;;;;;;;2.28;75.39;100328.61;1799514;77;25743;-62
2022/02/08 00:19:16;;;;;;;5.60;3.45;;;;;;;2.25;75.52;100327.47;1844850;77;25635;-61
2022/02/08 00:21:43;;;;;;;6.28;3.58;;;;;;;2.28;75.27;100331.75;1845310;77;25764;-62
2022/02/08 00:24:10;;;;;;;6.28;4.00;;;;;;;2.28;75.45;100356.48;1837581;77;25698;-62
2022/02/08 00:26:37;;;;;;;7.65;3.95;;;;;;;2.28;75.22;100335.73;1810084;79;27451;-63
2022/02/08 00:29:05;;;;;;;6.72;3.52;;;;;;;2.27;75.59;100331.38;1814460;77;25706;-62
2022/02/08 00:31:32;;;;;;;5.67;3.45;;;;;;;2.30;75.34;100347.09;1845336;77;25809;-62
2022/02/08 00:33:59;;;;;;;8.50;3.90;;;;;;;2.30;75.40;100347.96;1845038;77;26496;-62
2022/02/08 00:36:26;;;;;;;7.58;3.87;;;;;;;2.30;75.46;100349.74;1844962;77;25661;-63
2022/02/08 00:38:54;;;;;;;11.55;4.65;;;;;;;2.30;75.26;100350.62;1833150;77;27492;-62
2022/02/08 00:41:26;;;;;;;11.45;4.75;;;;;;;2.30;75.28;100361.69;1818106;77;25777;-62
2022/02/08 00:44:00;;;;;;;9.10;4.45;;;;;;;2.33;75.47;100364.17;1844960;77;25722;-62
2022/02/08 00:46:32;;;;;;;6.08;3.80;;;;;;;2.29;75.53;100365.28;1844084;77;25800;-62
2022/02/08 00:48:58;;;;;;;5.55;3.85;;;;;;;2.29;75.37;100365.28;1833001;77;25705;-62
2022/02/08 00:51:25;;;;;;;9.65;3.87;;;;;;;2.28;75.67;100378.20;1801344;79;27436;-62
2022/02/08 00:53:53;;;;;;;5.40;3.98;;;;;;;2.26;75.61;100368.15;1799166;79;25637;-61
2022/02/08 00:56:21;;;;;;;4.62;3.60;;;;;;;2.29;75.60;100358.20;1799375;79;25640;-62
2022/02/08 00:58:48;;;;;;;5.45;4.03;;;;;;;2.30;75.85;100357.25;1822095;78;26476;-62
2022/02/08 01:01:15;;;;;;;6.15;4.03;;;;;;;2.26;75.68;100370.31;1843506;77;25840;-62
2022/02/08 01:03:43;;;;;;;5.70;4.10;;;;;;;2.28;75.76;100367.11;1844815;77;28035;-63
2022/02/08 01:06:10;;;;;;;5.47;3.58;;;;;;;2.27;75.64;100379.15;1844612;77;25723;-62
2022/02/08 01:08:40;;;;;;;3.95;3.27;;;;;;;2.28;75.89;100368.92;1816412;77;25671;-62
2022/02/08 01:11:11;;;;;;;5.67;4.33;;;;;;;2.29;75.79;100376.78;1814544;79;25773;-62
2022/02/08 01:13:41;;;;;;;5.58;4.03;;;;;;;2.30;75.62;100388.23;1814407;79;25757;-62
2022/02/08 01:16:08;;;;;;;11.97;3.55;;;;;;;2.29;75.62;100387.39;1814343;79;27462;-62
2022/02/08 01:18:40;;;;;;;4.65;3.30;;;;;;;2.27;75.73;100383.97;1815046;77;25735;-62
2022/02/08 01:21:04;;;;;;;5.25;3.33;;;;;;;2.28;75.61;100387.50;1844465;77;25746;-62
2022/02/08 01:23:31;;;;;;;4.85;3.50;;;;;;;2.30;75.67;100395.74;1844586;77;26636;-62
2022/02/08 01:26:06;;;;;;;6.45;4.00;;;;;;;2.32;75.81;100395.64;1807562;77;25695;-62
2022/02/08 01:28:40;;;;;;;7.25;3.92;;;;;;;2.29;75.63;100391.83;1798998;79;27501;-62
2022/02/08 01:31:06;;;;;;;4.53;3.35;;;;;;;2.29;75.61;100408.62;1808413;77;25732;-62
2022/02/08 01:36:30;;;;;;;4.15;2.98;;;;;;;2.29;75.70;100403.77;1796553;79;25801;-61
2022/02/08 01:39:08;;;;;;;5.55;3.22;;;;;;;2.32;75.67;100404.48;1798695;79;26427;-62
2022/02/08 01:46:55;;;;;;;5.65;3.67;;;;;;;2.25;75.57;100434.13;1799982;78;25455;-62
2022/02/08 01:49:29;;;;;;;5.12;3.10;;;;;;;2.22;75.79;100438.27;1797262;79;25881;-62
2022/02/08 01:51:43;;;;;;;4.47;2.87;;;;;;;2.16;75.87;100458.06;1797950;78;25668;-63
2022/02/08 01:54:11;;;;;;;4.47;2.95;;;;;;;2.20;76.08;100446.34;1838655;77;28251;-61
2022/02/08 01:56:37;;;;;;;4.22;3.02;;;;;;;2.21;75.97;100458.66;1844938;77;25453;-63
2022/02/08 01:59:05;;;;;;;4.30;3.12;;;;;;;2.18;76.20;100459.70;1842572;77;25912;-62
2022/02/08 02:01:35;;;;;;;3.55;2.77;;;;;;;2.21;76.31;100455.14;1817890;78;25784;-62
2022/02/08 02:04:02;;;;;;;4.03;2.85;;;;;;;2.21;76.38;100468.41;1802796;79;25767;-63
2022/02/08 02:06:29;;;;;;;3.60;2.55;;;;;;;2.17;76.44;100465.08;1802763;79;28635;-62
2022/02/08 02:08:56;;;;;;;3.72;2.85;;;;;;;2.16;76.63;100464.23;1802443;79;25802;-62
2022/02/08 02:11:23;;;;;;;5.28;3.12;;;;;;;2.15;76.47;100471.81;1814232;77;25675;-63
2022/02/08 02:13:51;;;;;;;5.50;3.15;;;;;;;2.14;76.33;100482.53;1834005;78;25835;-62
2022/02/08 02:16:26;;;;;;;3.35;2.75;;;;;;;2.14;76.43;100496.64;1834022;77;25651;-62
2022/02/08 02:18:49;;;;;;;5.60;2.60;;;;;;;2.12;76.48;100501.66;1833111;78;27862;-62
2022/02/08 02:21:17;;;;;;;5.65;2.72;;;;;;;2.11;76.57;100506.58;1834168;77;26005;-62
2022/02/08 02:23:49;;;;;;;6.67;2.90;;;;;;;2.09;76.78;100513.77;1827704;78;25749;-62
2022/02/08 02:26:18;;;;;;;6.08;3.10;;;;;;;2.05;76.92;100514.42;1799061;79;34659;-62
2022/02/08 02:28:44;;;;;;;4.33;2.87;;;;;;;2.06;76.99;100525.91;1799531;78;25799;-63
2022/02/08 02:31:12;;;;;;;5.17;3.12;;;;;;;2.06;76.99;100534.70;1806769;78;27551;-62
2022/02/08 02:33:39;;;;;;;4.58;3.25;;;;;;;2.07;77.21;100531.11;1810803;79;27226;-62
2022/02/08 02:36:07;;;;;;;4.72;3.17;;;;;;;2.05;77.23;100545.42;1811244;79;25458;-62
2022/02/08 02:38:35;;;;;;;4.00;2.85;;;;;;;2.06;77.49;100547.13;1811338;79;26460;-63
2022/02/08 02:41:02;;;;;;;4.05;2.95;;;;;;;2.04;77.36;100540.56;1812584;78;25703;-63
2022/02/08 02:43:30;;;;;;;5.30;3.50;;;;;;;2.07;77.67;100533.77;1806384;78;27332;-62
2022/02/08 02:46:00;;;;;;;4.55;3.27;;;;;;;2.02;77.44;100545.97;1806179;78;25795;-62
2022/02/08 02:48:27;;;;;;;5.15;3.55;;;;;;;1.98;77.49;100560.33;1806399;79;25621;-62
2022/02/08 02:50:56;;;;;;;3.65;3.20;;;;;;;1.97;77.36;100553.80;1806442;78;25780;-62
2022/02/08 02:53:26;;;;;;;5.42;3.80;;;;;;;1.95;77.33;100566.28;1819388;78;25461;-62
2022/02/08 02:55:54;;;;;;;6.47;3.83;;;;;;;1.94;77.50;100575.19;1834211;78;27344;-62
2022/02/08 02:58:26;;;;;;;5.05;4.08;;;;;;;1.95;77.24;100575.12;1834199;78;25832;-63
2022/02/08 03:01:09;;;;;;;5.58;4.58;;;;;;;1.95;77.10;100591.48;1786473;78;25715;-62
2022/02/08 03:19:23;;;;;;;6.33;4.30;;;;;;;1.91;77.05;100636.39;1794514;80;26367;-62
2022/02/08 03:21:50;;;;;;;6.97;4.40;;;;;;;1.90;77.06;100643.95;1794119;80;27453;-62
2022/02/08 03:24:17;;;;;;;7.15;4.83;;;;;;;1.89;77.20;100659.00;1803044;78;25612;-62
2022/02/08 03:26:44;;;;;;;8.23;4.75;;;;;;;1.88;77.06;100662.14;1828362;78;25691;-63
2022/02/08 03:29:12;;;;;;;6.08;4.97;;;;;;;1.88;77.07;100666.12;1827555;78;25858;-62
2022/02/08 03:31:39;;;;;;;9.85;5.30;;;;;;;1.90;77.13;100671.81;1828475;78;25797;-62
2022/02/08 03:34:06;;;;;;;8.80;5.47;;;;;;;1.90;77.14;100684.59;1827582;78;28317;-62
2022/02/08 03:36:35;;;;;;;7.97;4.92;;;;;;;1.89;77.20;100685.53;1828523;77;25522;-62
2022/02/08 03:39:15;;;;;;;8.08;5.03;;;;;;;1.82;77.30;100692.98;1827878;78;25720;-62
2022/02/08 03:41:48;;;;;;;9.10;5.47;;;;;;;1.84;77.30;100696.88;1812234;77;25865;-62
2022/02/08 03:44:17;;;;;;;8.25;6.08;;;;;;;1.84;77.44;100706.16;1794974;78;26325;-62
2022/02/08 03:46:45;;;;;;;8.83;5.22;;;;;;;1.81;77.42;100716.47;1772899;79;28349;-63
2022/02/08 03:49:15;;;;;;;8.80;5.55;;;;;;;1.85;77.66;100707.39;1794886;78;25836;-62
2022/02/08 03:51:51;;;;;;;9.73;5.33;;;;;;;1.79;77.49;100711.70;1795637;79;25724;-62
2022/02/08 03:54:18;;;;;;;8.78;5.17;;;;;;;1.81;77.26;100720.89;1818498;78;26992;-62
2022/02/08 03:56:46;;;;;;;9.65;5.30;;;;;;;1.79;77.32;100732.08;1828800;77;25443;-62
2022/02/08 03:59:14;;;;;;;10.30;5.55;;;;;;;1.81;77.39;100730.18;1828211;78;28164;-62
2022/02/08 04:04:48;;;;;;;9.33;5.25;;;;;;;1.81;77.38;100741.66;1839256;77;25735;-62
2022/02/08 04:07:16;;;;;;;8.15;5.58;;;;;;;1.79;77.29;100740.03;1837917;77;26671;-62
2022/02/08 04:09:38;;;;;;;11.40;5.97;;;;;;;1.77;77.39;100766.63;1837151;77;25669;-62
2022/02/08 04:12:13;;;;;;;13.93;6.55;;;;;;;1.74;77.46;100761.95;1838283;78;27422;-62
2022/02/08 04:14:46;;;;;;;13.05;6.67;;;;;;;1.70;77.28;100764.75;1841804;77;25489;-62
2022/02/08 04:33:41;;;;;;;12.40;7.28;;;;;;;1.66;77.63;100810.09;1845102;77;25803;-63
2022/02/08 04:36:04;;;;;;;12.80;6.85;;;;;;;1.65;77.56;100806.57;1840860;77;26420;-64
2022/02/08 04:38:35;;;;;;;13.85;7.00;;;;;;;1.66;77.72;100818.90;1841684;77;27659;-63
2022/02/08 04:41:04;;;;;;;9.03;6.50;;;;;;;1.68;77.55;100826.77;1838299;77;25725;-63
2022/02/08 04:43:35;;;;;;;14.07;5.92;;;;;;;1.69;77.50;100836.44;1799135;78;25680;-63
2022/02/08 04:46:14;;;;;;;17.17;7.85;;;;;;;1.72;77.40;100829.19;1799435;78;25856;-63
2022/02/08 04:48:49;;;;;;;15.98;7.05;;;;;;;1.72;77.13;100840.28;1823847;77;25745;-62
2022/02/08 04:51:27;;;;;;;12.80;6.60;;;;;;;1.73;77.08;100856.59;1802956;77;27470;-63
2022/02/08 04:53:48;;;;;;;10.63;5.53;;;;;;;1.73;76.92;100856.59;1795197;78;25952;-63
2022/02/08 04:56:38;;;;;;;10.30;5.90;;;;;;;1.78;76.67;100866.97;1798641;79;25762;-62
2022/02/08 04:58:48;;;;;;;12.68;6.30;;;;;;;1.79;76.43;100863.38;1792424;79;26232;-63
2022/02/08 05:01:21;;;;;;;12.03;5.78;;;;;;;1.80;76.37;100865.95;1815933;78;25988;-63
2022/02/08 05:37:19;;;;;;;10.10;5.50;;;;;;;1.85;75.75;100952.77;1806703;78;25667;-64
2022/02/08 05:44:45;;;;;;;7.70;4.53;;;;;;;1.85;75.36;100970.50;1816808;78;27848;-63
2022/02/08 05:47:10;;;;;;;11.78;5.53;;;;;;;1.85;75.30;100985.09;1825619;78;25731;-63
2022/02/08 05:49:42;;;;;;;10.55;5.28;;;;;;;1.91;74.66;100977.30;1809146;78;25997;-63
2022/02/08 05:54:42;;;;;;;11.25;4.45;;;;;;;1.93;74.31;100990.88;1804889;78;25462;-64
2022/02/08 05:57:10;;;;;;;15.00;4.62;;;;;;;1.96;73.77;100998.70;1813882;77;28096;-63
2022/02/08 05:59:37;;;;;;;13.93;4.80;;;;;;;1.98;73.43;101007.90;1817285;78;26421;-63
2022/02/08 06:02:04;;;;;;;12.95;4.97;;;;;;;2.01;73.04;101013.91;1826125;77;25757;-63
2022/02/08 06:04:38;;;;;;;11.03;5.65;;;;;;;2.00;72.62;101024.61;1819131;78;26527;-63
2022/02/08 06:07:06;;;;;;;10.53;5.53;;;;;;;2.02;72.32;101022.72;1783770;80;25718;-63
2022/02/08 06:09:33;;;;;;;15.48;8.00;;;;;;;2.04;72.42;101024.84;1783781;80;27503;-63
2022/02/08 06:12:00;;;;;;;13.08;6.37;;;;;;;2.05;72.23;101022.58;1807389;78;25754;-63
2022/02/08 06:14:29;;;;;;;17.95;6.75;;;;;;;2.10;71.84;101031.20;1828462;78;25750;-63
2022/02/08 06:16:57;;;;;;;12.35;5.67;;;;;;;2.14;71.78;101043.84;1828370;78;25810;-63
2022/02/08 06:19:24;;;;;;;11.15;5.25;;;;;;;2.21;71.58;101055.88;1828372;77;25827;-63
2022/02/08 06:21:51;;;;;;;10.98;5.20;;;;;;;2.27;71.71;101066.66;1813133;78;27445;-63
2022/02/08 06:24:18;;;;;;;10.60;5.22;;;;;;;2.29;70.96;101070.08;1803158;78;25702;-64
2022/02/08 06:26:44;;;;;;;14.05;6.28;;;;;;;2.34;70.65;101073.39;1828413;78;25757;-63
2022/02/08 06:29:16;;;;;;;14.85;7.65;;;;;;;2.37;70.52;101076.35;1828262;78;26456;-64
2022/02/08 06:31:44;;;;;;;14.93;5.62;;;;;;;2.37;70.33;101085.20;1828305;78;25681;-63
2022/02/08 06:34:16;;;;;;;9.23;4.97;;;;;;;2.41;70.16;101097.37;1828295;78;27529;-63
2022/02/08 06:36:41;;;;;;;10.35;5.55;;;;;;;2.43;70.22;101105.25;1807739;78;25707;-63
2022/02/08 06:39:08;;;;;;;12.10;5.58;;;;;;;2.44;70.11;101109.17;1817841;78;25803;-63
2022/02/08 06:41:35;;;;;;;9.28;5.45;;;;;;;2.44;69.96;101117.14;1822074;78;25751;-63
2022/02/08 06:44:03;;;;;;;10.98;6.20;;;;;;;2.43;69.86;101122.05;1825270;78;25729;-63
2022/02/08 06:46:30;;;;;;;13.58;5.35;;;;;;;2.41;69.90;101127.06;1828584;77;28245;-63
2022/02/08 06:48:56;;;;;;;15.03;6.65;;;;;;;2.45;70.07;101131.27;1804309;77;25881;-63
2022/02/08 06:51:23;;;;;;;20.00;6.33;;;;;;;2.48;70.12;101139.09;1793930;78;25746;-63
2022/02/08 06:53:50;;;;;;;13.65;6.70;;;;;;;2.50;69.86;101139.89;1794332;80;26530;-63
2022/02/08 06:56:17;;;;;;;18.32;6.12;;;;;;;2.55;70.03;101147.63;1794490;78;25454;-63
2022/02/08 06:58:50;;;;;;;11.83;5.95;;;;;;;2.57;69.66;101143.08;1797052;78;27499;-65
2022/02/08 07:01:18;;;;;;;13.20;5.97;;;;;;;2.63;69.83;101150.77;1814075;78;25701;-62
2022/02/08 07:03:47;;;;;;;14.40;6.25;;;;;;;2.66;69.98;101151.92;1838959;78;25718;-63
2022/02/08 07:06:14;;;;;;;12.82;6.45;;;;;;;2.64;69.72;101158.65;1827082;77;26578;-63
2022/02/08 07:08:41;;;;;;;12.73;6.37;;;;;;;2.71;69.72;101152.58;1839502;78;25729;-63
2022/02/08 07:11:14;;;;;;;14.93;6.33;;;;;;;2.76;69.55;101163.82;1839644;77;28046;-63
2022/02/08 07:13:38;;;;;;;13.00;6.20;;;;;;;2.79;69.36;101176.09;1838418;77;25789;-63
2022/02/08 07:16:05;;;;;;;12.75;6.65;;;;;;;2.76;69.24;101165.15;1838452;78;25516;-63
2022/02/08 07:18:32;;;;;;;15.78;6.65;;;;;;;2.76;69.12;101169.62;1818423;78;25802;-63
2022/02/08 07:20:59;;;;;;;16.02;6.60;;;;;;;2.79;69.15;101174.31;1794229;78;25790;-64
2022/02/08 07:23:26;;;;;;;17.52;7.20;;;;;;;2.86;69.11;101172.21;1832636;77;27494;-62
2022/02/08 07:25:54;;;;;;;16.77;7.85;;;;;;;2.89;68.94;101176.03;1819484;77;25726;-62
2022/02/08 07:28:22;;;;;;;15.78;6.85;;;;;;;2.95;69.07;101181.05;1838354;77;25706;-62
2022/02/08 07:30:49;;;;;;;18.90;8.60;;;;;;;2.99;68.76;101179.10;1839402;78;25790;-62
2022/02/08 07:33:16;;;;;;;17.75;8.50;;;;;;;2.95;68.50;101197.45;1839196;78;25488;-62
2022/02/08 07:35:53;;;;;;;20.48;10.53;;;;;;;2.96;68.51;101191.20;1830801;77;27452;-63
2022/02/08 07:38:30;;;;;;;17.95;7.67;;;;;;;2.98;68.50;101194.17;1824466;78;25762;-63
2022/02/08 07:43:16;;;;;;;15.10;6.83;;;;;;;3.11;68.76;101203.72;1818910;78;25807;-62
2022/02/08 07:45:45;;;;;;;15.55;7.53;;;;;;;3.13;68.65;101203.17;1830731;78;25437;-62
2022/02/08 07:48:12;;;;;;;17.35;7.12;;;;;;;3.16;68.38;101211.94;1810857;78;26895;-63
2022/02/08 07:50:41;;;;;;;11.88;6.92;;;;;;;3.17;68.55;101212.34;1794076;80;25783;-62
2022/02/08 07:53:10;;;;;;;15.18;8.28;;;;;;;3.18;68.64;101216.23;1794083;79;25698;-63
2022/02/08 07:55:37;;;;;;;17.82;8.00;;;;;;;3.21;68.55;101217.42;1793908;80;26479;-62
2022/02/08 07:58:04;;;;;;;13.20;8.18;;;;;;;3.24;68.45;101221.72;1807781;78;25695;-63
2022/02/08 08:00:30;;;;;;;15.78;8.18;;;;;;;3.22;68.15;101227.13;1839370;78;27448;-62
2022/02/08 08:02:58;;;;;;;14.68;8.85;;;;;;;3.21;68.22;101228.51;1820818;77;26299;-61
2022/02/08 08:05:26;;;;;;;19.70;9.83;;;;;;;3.22;68.25;101224.92;1789514;79;25733;-62
2022/02/08 08:08:33;;;;;;;17.10;8.88;;;;;;;3.25;68.42;101234.08;1795233;78;27092;-62
2022/02/08 08:11:01;;;;;;;32.63;8.68;;;;;;;3.28;68.40;101234.78;1792415;78;25850;-63
2022/02/08 08:13:28;;;;;;;17.95;9.10;;;;;;;3.32;68.10;101237.30;1796140;79;27463;-63
2022/02/08 08:16:05;;;;;;;14.38;8.38;;;;;;;3.33;68.24;101235.88;1779608;79;25982;-63
2022/02/08 08:18:42;;;;;;;17.95;7.78;;;;;;;3.41;68.25;101244.33;1787793;79;25674;-63
2022/02/08 08:20:54;;;;;;;19.32;8.35;;;;;;;3.49;68.33;101233.30;1799937;79;25948;-63
2022/02/08 08:23:21;;;;;;;15.65;8.20;;;;;;;3.59;68.15;101244.31;1798272;79;25426;-63
2022/02/08 08:25:50;;;;;;;15.95;7.72;;;;;;;3.67;68.07;101244.77;1778309;78;27464;-62
2022/02/08 08:28:17;;;;;;;20.50;9.03;;;;;;;3.72;67.69;101245.87;1806847;78;26237;-62
2022/02/08 08:30:44;;;;;;;15.13;7.53;;;;;;;3.75;67.25;101253.22;1807268;78;25948;-62
2022/02/08 08:33:11;;;;;;;16.07;8.38;;;;;;;3.78;66.97;101261.98;1798766;79;26115;-63
2022/02/08 08:35:39;;;;;;;18.48;7.67;;;;;;;3.78;66.62;101261.50;1760870;80;26386;-63
2022/02/08 08:38:08;;;;;;;20.85;8.85;;;;;;;3.79;66.36;101265.89;1746153;81;27852;-63
2022/02/08 08:48:39;;;;;;;17.55;8.65;;;;;;;3.96;66.07;101294.30;1765584;80;25798;-62
2022/02/08 08:51:18;;;;;;;22.52;9.53;;;;;;;3.99;66.40;101287.46;1766942;79;27581;-63
2022/02/08 08:53:32;;;;;;;19.62;9.30;;;;;;;4.07;66.18;101295.05;1788592;79;25841;-62
2022/02/08 08:55:58;;;;;;;16.75;8.05;;;;;;;4.13;65.83;101296.53;1788016;78;25746;-63
2022/02/08 08:58:25;;;;;;;17.25;7.28;;;;;;;4.20;65.05;101302.80;1780271;79;25737;-63
2022/02/08 09:00:52;;;;;;;9.88;5.87;;;;;;;4.21;64.19;101292.98;1786634;78;25819;-63
2022/02/08 09:03:19;;;;;;;16.37;7.47;;;;;;;4.27;64.21;101305.12;1828407;78;27446;-63
2022/02/08 09:05:46;;;;;;;14.80;7.00;;;;;;;4.31;63.37;101305.33;1822003;78;25872;-63
2022/02/08 09:08:12;;;;;;;13.85;5.90;;;;;;;4.39;62.74;101311.98;1815402;78;25514;-62
2022/02/08 09:10:49;;;;;;;14.68;6.95;;;;;;;4.47;62.45;101300.92;1816479;77;26882;-62
2022/02/08 09:21:03;;;;;;;11.80;6.25;;;;;;;4.54;60.21;101321.41;1823649;78;26433;-63
2022/02/08 09:23:44;;;;;;;11.28;5.05;;;;;;;4.59;59.71;101317.16;1815051;78;26203;-62
2022/02/08 09:28:23;;;;;;;13.78;5.45;;;;;;;4.67;59.33;101313.59;1819841;78;27468;-64
2022/02/08 09:30:58;;;;;;;8.80;4.87;;;;;;;4.63;58.34;101317.39;1814143;78;25793;-63
2022/02/08 09:33:19;;;;;;;8.75;5.37;;;;;;;4.70;59.36;101321.43;1821039;78;25897;-63
2022/02/08 09:35:47;;;;;;;13.88;5.87;;;;;;;4.77;58.90;101323.30;1827559;77;25448;-63
2022/02/08 09:38:14;;;;;;;12.65;6.35;;;;;;;4.82;59.17;101324.77;1825125;77;25742;-62
2022/02/08 09:40:41;;;;;;;12.80;5.10;;;;;;;4.95;58.49;101318.72;1824708;77;29629;-63
2022/02/08 09:43:13;;;;;;;12.28;5.58;;;;;;;4.89;57.73;101331.92;1824818;78;25866;-62
2022/02/08 09:45:47;;;;;;;12.13;5.87;;;;;;;4.83;58.52;101326.48;1816070;78;25691;-63
2022/02/08 09:48:29;;;;;;;11.30;5.70;;;;;;;4.81;58.71;101328.37;1828132;78;26576;-63
2022/02/08 09:50:51;;;;;;;17.73;7.80;;;;;;;4.79;58.38;101328.92;1818144;78;25722;-63
2022/02/08 09:53:30;;;;;;;11.85;5.72;;;;;;;4.77;58.82;101326.80;1820447;78;27440;-63
2022/02/08 09:55:49;;;;;;;12.25;5.67;;;;;;;4.73;58.52;101317.27;1821654;78;25931;-63
2022/02/08 09:58:16;;;;;;;15.72;5.75;;;;;;;4.57;58.49;101337.72;1817644;78;25797;-63
2022/02/08 10:00:44;;;;;;;15.63;6.45;;;;;;;4.55;58.07;101332.45;1821007;78;25792;-62
2022/02/08 10:03:17;;;;;;;18.27;6.78;;;;;;;4.43;59.02;101333.98;1829765;78;25794;-63
2022/02/08 10:05:48;;;;;;;11.03;6.37;;;;;;;4.40;59.29;101338.13;1829341;78;27477;-63
2022/02/08 10:08:15;;;;;;;10.55;5.30;;;;;;;4.33;59.66;101340.28;1832852;77;25765;-63
2022/02/08 10:10:43;;;;;;;18.95;5.90;;;;;;;4.34;59.27;101342.02;1835019;77;25620;-62
2022/02/08 10:13:40;;;;;;;13.53;5.78;;;;;;;4.25;59.04;101330.97;1832839;77;25736;-63
2022/02/08 10:21:44;;;;;;;13.55;5.17;;;;;;;4.29;58.84;101340.05;1823996;78;25776;-63
2022/02/08 10:24:11;;;;;;;14.40;5.33;;;;;;;4.26;58.10;101322.89;1824642;78;25635;-62
2022/02/08 10:29:15;;;;;;;;;;;;;;;4.22;58.11;101339.98;1833444;77;25807;-63
2022/02/08 10:40:17;;;;;;;10.78;3.67;;;;;;;4.32;57.42;101350.55;1831745;77;26094;-62
2022/02/08 10:42:59;;;;;;;10.32;4.40;;;;;;;4.36;57.29;101342.77;1805191;77;25778;-62
2022/02/08 10:45:39;;;;;;;9.53;3.65;;;;;;;4.42;57.08;101358.05;1831539;77;27440;-62
2022/02/08 10:48:14;;;;;;;10.55;4.08;;;;;;;4.50;55.96;101342.52;1832433;77;25769;-61
2022/02/08 10:50:50;;;;;;;14.63;4.40;;;;;;;4.54;56.57;101349.38;1828937;77;25685;-61
2022/02/08 10:53:15;;;;;;;13.03;5.08;;;;;;;4.64;56.31;101354.61;1828176;77;25750;-62
2022/02/08 10:55:51;;;;;;;8.48;3.72;;;;;;;4.66;56.22;101362.53;1828974;77;25718;-64
2022/02/08 10:58:33;;;;;;;10.82;3.62;;;;;;;4.76;56.20;101353.55;1834656;77;27352;-61
2022/02/08 11:01:11;;;;;;;7.10;3.58;;;;;;;4.78;54.39;101362.34;1835170;77;25839;-62
2022/02/08 11:03:46;;;;;;;7.62;2.35;;;;;;;4.78;53.56;101349.01;1837351;77;25762;-62
2022/02/08 11:06:37;;;;;;;10.00;3.90;;;;;;;4.75;53.92;101363.34;1823985;77;25748;-62
2022/02/08 11:14:25;;;;;;;10.35;4.50;;;;;;;4.60;55.29;101370.39;1818299;78;25824;-62
2022/02/08 11:22:49;;;;;;;9.58;4.42;;;;;;;4.47;56.18;101366.19;1812439;78;25706;-62
2022/02/08 11:25:27;;;;;;;10.28;4.28;;;;;;;4.50;55.87;101374.00;1809447;78;28131;-62
2022/02/08 11:28:29;;;;;;;11.18;4.30;;;;;;;4.53;55.63;101364.98;1795334;79;25782;-62
2022/02/08 11:31:00;;;;;;;8.73;3.62;;;;;;;4.53;55.92;101371.19;1755687;81;36102;-61
2022/02/08 11:47:49;;;;;;;8.30;2.30;;;;;;;4.85;50.16;101385.04;1817966;77;25834;-62
2022/02/08 11:50:20;;;;;;;6.03;2.58;;;;;;;4.69;50.83;101389.00;1817205;77;26171;-63
2022/02/08 11:55:27;;;;;;;8.38;2.35;;;;;;;4.68;51.04;101393.48;1813695;78;25723;-62
2022/02/08 12:00:39;;;;;;;7.50;2.55;;;;;;;4.61;51.39;101398.77;1823149;77;26551;-61
2022/02/08 12:08:33;;;;;;;6.60;2.90;;;;;;;4.62;50.89;101391.12;1800933;78;25703;-62
2022/02/08 12:11:35;;;;;;;4.53;2.05;;;;;;;4.79;50.72;101390.72;1827627;78;25743;-61
2022/02/08 12:27:04;;;;;;;10.53;2.70;;;;;;;4.94;51.44;101389.87;1788037;78;25795;-61
2022/02/08 12:30:56;;;;;;;8.75;3.17;;;;;;;4.63;50.42;101406.66;1828298;78;25730;-62
2022/02/08 12:33:03;;;;;;;6.17;2.90;;;;;;;4.57;50.42;101415.84;1825134;78;27456;-62
2022/02/08 12:35:41;;;;;;;9.25;3.05;;;;;;;4.45;51.15;101424.02;1824519;77;26217;-62
2022/02/08 12:57:55;;;;;;;15.45;4.60;;;;;;;4.92;52.31;101414.91;1788505;78;25856;-62
2022/02/08 13:00:41;;;;;;;22.62;5.72;;;;;;;4.94;52.65;101419.65;1813605;78;26702;-61
2022/02/08 14:03:48;;;;;;;17.77;4.60;;;;;;;5.22;54.51;101439.02;1829487;77;27926;-63
2022/02/08 14:06:00;;;;;;;17.17;4.70;;;;;;;5.24;54.44;101432.25;1820279;78;25829;-63
2022/02/08 14:11:14;;;;;;;14.60;5.75;;;;;;;5.19;54.31;101440.51;1820731;78;25736;-63
2022/02/08 14:19:36;;;;;;;15.90;4.60;;;;;;;5.28;54.83;101437.33;1819326;77;25605;-62
2022/02/08 14:21:22;;;;;;;13.10;5.22;;;;;;;5.36;54.52;101438.70;1811887;78;27476;-64
2022/02/08 14:37:14;;;;;;;17.07;3.40;;;;;;;4.82;52.29;101448.72;1820527;78;25465;-64
2022/02/08 15:09:25;;;;;;;16.23;4.40;;;;;;;3.95;54.34;101488.23;1807009;78;25539;-62
2022/02/08 15:12:05;;;;;;;15.30;4.33;;;;;;;3.91;54.62;101482.20;1806481;79;25845;-62
2022/02/08 15:14:22;;;;;;;19.73;4.80;;;;;;;3.85;54.67;101482.52;1803789;79;28277;-62
2022/02/08 15:16:44;;;;;;;11.43;4.62;;;;;;;3.81;54.81;101490.24;1806515;79;25852;-62
2022/02/08 15:19:12;;;;;;;17.77;5.40;;;;;;;3.77;55.02;101492.64;1811861;78;25756;-62
2022/02/08 15:21:39;;;;;;;13.80;5.45;;;;;;;3.73;55.15;101497.74;1811252;79;25792;-62
2022/02/08 15:24:09;;;;;;;16.62;5.70;;;;;;;3.65;55.16;101503.42;1812324;79;25765;-62
2022/02/08 15:26:38;;;;;;;18.62;6.15;;;;;;;3.60;55.37;101511.63;1811468;79;27473;-62
2022/02/08 15:29:05;;;;;;;18.27;6.83;;;;;;;3.52;55.63;101507.13;1807351;79;25846;-61
2022/02/08 15:31:33;;;;;;;16.10;7.47;;;;;;;3.45;55.80;101509.69;1737518;82;25798;-62
2022/02/08 15:34:00;;;;;;;17.98;8.15;;;;;;;3.37;55.85;101509.19;1800291;79;25658;-62
2022/02/08 15:36:30;;;;;;;16.93;6.12;;;;;;;3.31;56.24;101512.14;1734962;82;26246;-63
2022/02/08 15:39:04;;;;;;;20.08;6.45;;;;;;;3.24;56.37;101519.53;1804180;79;27459;-62
2022/02/08 15:41:27;;;;;;;14.65;6.95;;;;;;;3.15;56.62;101519.95;1839375;77;25502;-62
2022/02/08 15:43:54;;;;;;;25.75;6.03;;;;;;;3.03;56.79;101524.87;1839755;77;25712;-61
2022/02/08 15:46:26;;;;;;;17.75;5.53;;;;;;;2.94;57.01;101530.61;1837584;77;25713;-62
2022/02/08 15:48:50;;;;;;;19.80;5.10;;;;;;;2.90;57.27;101531.21;1830134;77;25755;-62
2022/02/08 15:51:32;;;;;;;12.70;5.05;;;;;;;2.87;57.35;101534.00;1820554;78;27433;-62
2022/02/08 15:54:08;;;;;;;13.75;6.08;;;;;;;2.85;57.31;101534.55;1825198;77;26500;-62
2022/02/08 16:07:09;;;;;;;31.10;11.25;;;;;;;2.96;57.60;101544.22;1836269;77;25733;-62
2022/02/08 16:10:16;;;;;;;25.85;9.95;;;;;;;2.96;57.59;101548.20;1837106;77;25693;-62
2022/02/08 16:23:22;;;;;;;17.23;7.40;;;;;;;3.02;58.12;101558.19;1848386;77;25676;-64
2022/02/08 16:54:24;;;;;;;22.05;10.28;;;;;;;3.06;60.42;101587.23;1849343;77;25783;-62
2022/02/08 16:59:08;;;;;;;27.15;7.95;;;;;;;2.98;61.01;101591.54;1845461;77;26068;-63
2022/02/08 17:01:36;;;;;;;14.13;7.12;;;;;;;2.95;61.21;101593.02;1841422;77;25758;-62
2022/02/08 17:04:08;;;;;;;24.05;7.35;;;;;;;2.91;61.82;101591.89;1850344;77;25824;-62
2022/02/08 17:06:34;;;;;;;23.98;7.17;;;;;;;2.90;61.35;101595.00;1859811;76;25443;-62
2022/02/08 17:11:39;;;;;;;26.75;9.50;;;;;;;2.87;62.11;101596.92;1857400;77;25684;-65
2022/02/08 17:16:55;;;;;;;16.27;6.53;;;;;;;2.82;63.44;101601.11;1822410;77;25678;-63
2022/02/08 17:46:36;;;;;;;16.15;7.72;;;;;;;2.61;64.95;101594.44;1847502;77;25728;-62
2022/02/08 17:48:58;;;;;;;22.62;9.28;;;;;;;2.53;64.74;101599.69;1814364;77;27476;-63
2022/02/08 17:51:25;;;;;;;24.47;8.73;;;;;;;2.50;64.92;101592.72;1837972;77;25768;-61
2022/02/08 17:53:52;;;;;;;24.72;10.00;;;;;;;2.49;64.87;101589.19;1841853;77;25668;-64
2022/02/08 17:56:18;;;;;;;18.05;6.62;;;;;;;2.40;65.93;101584.73;1810081;77;25841;-64
2022/02/08 17:58:45;;;;;;;21.30;7.10;;;;;;;2.32;65.58;101590.34;1844266;77;25761;-64
2022/02/08 18:01:12;;;;;;;16.65;6.28;;;;;;;2.23;65.73;101588.06;1849764;77;27445;-64
2022/02/08 18:03:39;;;;;;;17.95;7.65;;;;;;;2.13;66.35;101589.76;1845449;77;25710;-64
2022/02/08 18:06:06;;;;;;;23.12;9.10;;;;;;;2.01;67.41;101588.94;1847390;77;25722;-64
2022/02/08 18:08:34;;;;;;;18.73;8.65;;;;;;;1.90;67.72;101591.14;1850358;77;25651;-63